sensor_id;sensor_type;location;lat;lon;timestamp;P1;durP1;ratioP1;P2;durP2;ratioP2
179;SDS011;78;48.788;9.010;2024-02-16T00:01:34;19.20;;;5.13;;
179;SDS011;78;48.788;9.010;2024-02-16T00:04:01;23.77;;;6.70;;
179;SDS011;78;48.788;9.010;2024-02-16T00:06:27;22.30;;;6.83;;
179;SDS011;78;48.788;9.010;2024-02-16T00:08:53;27.43;;;7.10;;
179;SDS011;78;48.788;9.010;2024-02-16T00:11:19;24.73;;;7.57;;
179;SDS011;78;48.788;9.010;2024-02-16T00:13:45;23.13;;;6.80;;
179;SDS011;78;48.788;9.010;2024-02-16T00:16:11;21.57;;;6.43;;
179;SDS011;78;48.788;9.010;2024-02-16T00:18:37;23.83;;;6.43;;
179;SDS011;78;48.788;9.010;2024-02-16T00:21:03;21.17;;;6.20;;
179;SDS011;78;48.788;9.010;2024-02-16T00:23:30;23.30;;;6.20;;
179;SDS011;78;48.788;9.010;2024-02-16T00:25:58;23.60;;;7.23;;
179;SDS011;78;48.788;9.010;2024-02-16T00:28:24;21.13;;;6.50;;
179;SDS011;78;48.788;9.010;2024-02-16T00:30:51;20.70;;;6.40;;
179;SDS011;78;48.788;9.010;2024-02-16T00:33:17;21.27;;;6.07;;
179;SDS011;78;48.788;9.010;2024-02-16T00:35:44;24.30;;;5.83;;
179;SDS011;78;48.788;9.010;2024-02-16T00:38:12;21.10;;;5.97;;
179;SDS011;78;48.788;9.010;2024-02-16T00:40:38;20.90;;;5.50;;
179;SDS011;78;48.788;9.010;2024-02-16T00:43:08;21.37;;;6.17;;
179;SDS011;78;48.788;9.010;2024-02-16T00:45:34;19.50;;;5.60;;
179;SDS011;78;48.788;9.010;2024-02-16T00:48:00;22.43;;;6.27;;
179;SDS011;78;48.788;9.010;2024-02-16T00:50:27;21.83;;;5.77;;
179;SDS011;78;48.788;9.010;2024-02-16T00:52:53;22.60;;;6.40;;
179;SDS011;78;48.788;9.010;2024-02-16T00:55:19;21.90;;;6.00;;
179;SDS011;78;48.788;9.010;2024-02-16T00:57:46;20.20;;;5.43;;
179;SDS011;78;48.788;9.010;2024-02-16T01:00:12;22.50;;;6.10;;
179;SDS011;78;48.788;9.010;2024-02-16T01:02:40;22.90;;;5.90;;
179;SDS011;78;48.788;9.010;2024-02-16T01:05:06;22.63;;;6.57;;
179;SDS011;78;48.788;9.010;2024-02-16T01:07:35;21.57;;;6.50;;
179;SDS011;78;48.788;9.010;2024-02-16T01:10:01;22.33;;;6.13;;
179;SDS011;78;48.788;9.010;2024-02-16T01:12:28;20.03;;;5.73;;
179;SDS011;78;48.788;9.010;2024-02-16T01:14:59;19.00;;;5.03;;
179;SDS011;78;48.788;9.010;2024-02-16T01:17:25;19.20;;;5.20;;
179;SDS011;78;48.788;9.010;2024-02-16T01:19:51;18.57;;;4.73;;
179;SDS011;78;48.788;9.010;2024-02-16T01:22:17;18.57;;;4.73;;
179;SDS011;78;48.788;9.010;2024-02-16T01:24:43;20.10;;;4.83;;
179;SDS011;78;48.788;9.010;2024-02-16T01:27:09;18.40;;;4.73;;
179;SDS011;78;48.788;9.010;2024-02-16T01:29:38;20.33;;;4.97;;
179;SDS011;78;48.788;9.010;2024-02-16T01:32:04;18.80;;;4.50;;
179;SDS011;78;48.788;9.010;2024-02-16T01:34:30;19.87;;;4.67;;
179;SDS011;78;48.788;9.010;2024-02-16T01:36:57;19.67;;;4.50;;
179;SDS011;78;48.788;9.010;2024-02-16T01:39:23;20.07;;;4.70;;
179;SDS011;78;48.788;9.010;2024-02-16T01:41:50;17.30;;;3.83;;
179;SDS011;78;48.788;9.010;2024-02-16T01:44:17;15.90;;;3.90;;
179;SDS011;78;48.788;9.010;2024-02-16T01:46:43;17.13;;;4.07;;
179;SDS011;78;48.788;9.010;2024-02-16T01:49:10;20.60;;;5.60;;
179;SDS011;78;48.788;9.010;2024-02-16T01:51:36;21.40;;;5.60;;
179;SDS011;78;48.788;9.010;2024-02-16T01:54:02;22.37;;;6.83;;
179;SDS011;78;48.788;9.010;2024-02-16T01:56:28;22.07;;;6.00;;
179;SDS011;78;48.788;9.010;2024-02-16T01:58:55;21.33;;;6.27;;
179;SDS011;78;48.788;9.010;2024-02-16T02:01:21;20.87;;;5.90;;
179;SDS011;78;48.788;9.010;2024-02-16T02:03:47;20.43;;;5.70;;
179;SDS011;78;48.788;9.010;2024-02-16T02:06:13;19.80;;;5.53;;
179;SDS011;78;48.788;9.010;2024-02-16T02:08:40;21.83;;;5.70;;
179;SDS011;78;48.788;9.010;2024-02-16T02:11:06;19.33;;;5.17;;
179;SDS011;78;48.788;9.010;2024-02-16T02:13:32;21.90;;;5.87;;
179;SDS011;78;48.788;9.010;2024-02-16T02:15:58;21.10;;;5.97;;
179;SDS011;78;48.788;9.010;2024-02-16T02:18:25;20.80;;;5.73;;
179;SDS011;78;48.788;9.010;2024-02-16T02:20:51;20.60;;;5.80;;
179;SDS011;78;48.788;9.010;2024-02-16T02:23:19;20.73;;;5.80;;
179;SDS011;78;48.788;9.010;2024-02-16T02:25:45;19.17;;;5.03;;
179;SDS011;78;48.788;9.010;2024-02-16T02:28:11;20.87;;;6.00;;
179;SDS011;78;48.788;9.010;2024-02-16T02:30:37;18.40;;;4.90;;
179;SDS011;78;48.788;9.010;2024-02-16T02:33:04;20.07;;;5.27;;
179;SDS011;78;48.788;9.010;2024-02-16T02:35:30;19.23;;;4.90;;
179;SDS011;78;48.788;9.010;2024-02-16T02:37:56;17.60;;;4.70;;
179;SDS011;78;48.788;9.010;2024-02-16T02:40:23;19.27;;;4.80;;
179;SDS011;78;48.788;9.010;2024-02-16T02:42:49;18.90;;;5.30;;
179;SDS011;78;48.788;9.010;2024-02-16T02:45:15;18.80;;;4.80;;
179;SDS011;78;48.788;9.010;2024-02-16T02:47:41;19.13;;;5.20;;
179;SDS011;78;48.788;9.010;2024-02-16T02:50:08;18.67;;;4.93;;
179;SDS011;78;48.788;9.010;2024-02-16T02:52:35;18.80;;;5.07;;
179;SDS011;78;48.788;9.010;2024-02-16T02:55:01;20.53;;;4.70;;
179;SDS011;78;48.788;9.010;2024-02-16T02:57:27;19.37;;;4.53;;
179;SDS011;78;48.788;9.010;2024-02-16T02:59:53;17.53;;;4.50;;
179;SDS011;78;48.788;9.010;2024-02-16T03:02:31;19.23;;;4.83;;
179;SDS011;78;48.788;9.010;2024-02-16T03:04:57;19.27;;;4.60;;
179;SDS011;78;48.788;9.010;2024-02-16T03:07:24;19.57;;;4.37;;
179;SDS011;78;48.788;9.010;2024-02-16T03:09:51;18.30;;;4.73;;
179;SDS011;78;48.788;9.010;2024-02-16T03:12:17;18.40;;;4.00;;
179;SDS011;78;48.788;9.010;2024-02-16T03:14:43;17.67;;;4.37;;
179;SDS011;78;48.788;9.010;2024-02-16T03:17:09;18.77;;;4.23;;
179;SDS011;78;48.788;9.010;2024-02-16T03:19:35;17.30;;;4.07;;
179;SDS011;78;48.788;9.010;2024-02-16T03:22:01;17.50;;;3.80;;
179;SDS011;78;48.788;9.010;2024-02-16T03:24:28;18.70;;;4.43;;
179;SDS011;78;48.788;9.010;2024-02-16T03:26:54;17.10;;;3.67;;
179;SDS011;78;48.788;9.010;2024-02-16T03:29:20;17.13;;;3.90;;
179;SDS011;78;48.788;9.010;2024-02-16T03:31:46;17.00;;;4.17;;
179;SDS011;78;48.788;9.010;2024-02-16T03:34:12;19.70;;;4.40;;
179;SDS011;78;48.788;9.010;2024-02-16T03:36:38;17.70;;;4.13;;
179;SDS011;78;48.788;9.010;2024-02-16T03:39:04;16.63;;;3.90;;
179;SDS011;78;48.788;9.010;2024-02-16T03:41:34;17.20;;;4.33;;
179;SDS011;78;48.788;9.010;2024-02-16T03:44:00;18.47;;;4.00;;
179;SDS011;78;48.788;9.010;2024-02-16T03:46:26;21.27;;;4.60;;
179;SDS011;78;48.788;9.010;2024-02-16T03:48:52;19.93;;;4.83;;
179;SDS011;78;48.788;9.010;2024-02-16T03:51:19;18.60;;;5.07;;
179;SDS011;78;48.788;9.010;2024-02-16T03:53:46;17.83;;;4.77;;
179;SDS011;78;48.788;9.010;2024-02-16T03:56:12;18.60;;;5.00;;
179;SDS011;78;48.788;9.010;2024-02-16T03:58:38;20.80;;;4.77;;
179;SDS011;78;48.788;9.010;2024-02-16T04:01:04;17.50;;;4.50;;
179;SDS011;78;48.788;9.010;2024-02-16T04:03:32;20.20;;;4.97;;
179;SDS011;78;48.788;9.010;2024-02-16T04:05:58;18.67;;;4.63;;
179;SDS011;78;48.788;9.010;2024-02-16T04:08:24;18.67;;;4.53;;
179;SDS011;78;48.788;9.010;2024-02-16T04:10:51;17.20;;;4.30;;
179;SDS011;78;48.788;9.010;2024-02-16T04:13:17;19.47;;;5.10;;
179;SDS011;78;48.788;9.010;2024-02-16T04:15:44;19.17;;;4.70;;
179;SDS011;78;48.788;9.010;2024-02-16T04:18:11;21.73;;;4.90;;
179;SDS011;78;48.788;9.010;2024-02-16T04:20:38;21.60;;;5.80;;
179;SDS011;78;48.788;9.010;2024-02-16T04:23:06;17.73;;;4.53;;
179;SDS011;78;48.788;9.010;2024-02-16T04:25:33;18.17;;;4.60;;
179;SDS011;78;48.788;9.010;2024-02-16T04:27:59;18.50;;;4.43;;
179;SDS011;78;48.788;9.010;2024-02-16T04:30:25;21.20;;;4.93;;
179;SDS011;78;48.788;9.010;2024-02-16T04:32:53;18.70;;;4.77;;
179;SDS011;78;48.788;9.010;2024-02-16T04:35:19;18.00;;;4.77;;
179;SDS011;78;48.788;9.010;2024-02-16T04:37:45;18.90;;;5.20;;
179;SDS011;78;48.788;9.010;2024-02-16T04:40:12;20.23;;;5.00;;
179;SDS011;78;48.788;9.010;2024-02-16T04:42:38;21.47;;;5.20;;
179;SDS011;78;48.788;9.010;2024-02-16T04:45:10;22.13;;;4.97;;
179;SDS011;78;48.788;9.010;2024-02-16T04:47:38;19.40;;;5.00;;
179;SDS011;78;48.788;9.010;2024-02-16T04:50:05;17.60;;;4.87;;
179;SDS011;78;48.788;9.010;2024-02-16T04:52:35;19.63;;;5.30;;
179;SDS011;78;48.788;9.010;2024-02-16T04:55:01;19.00;;;5.23;;
179;SDS011;78;48.788;9.010;2024-02-16T04:57:28;20.90;;;5.03;;
179;SDS011;78;48.788;9.010;2024-02-16T04:59:56;21.27;;;5.13;;
179;SDS011;78;48.788;9.010;2024-02-16T05:02:22;18.00;;;5.17;;
179;SDS011;78;48.788;9.010;2024-02-16T05:04:49;22.60;;;5.60;;
179;SDS011;78;48.788;9.010;2024-02-16T05:07:15;17.90;;;4.97;;
179;SDS011;78;48.788;9.010;2024-02-16T05:09:41;18.97;;;4.63;;
179;SDS011;78;48.788;9.010;2024-02-16T05:12:08;17.80;;;5.00;;
179;SDS011;78;48.788;9.010;2024-02-16T05:14:35;20.83;;;4.97;;
179;SDS011;78;48.788;9.010;2024-02-16T05:17:01;18.93;;;5.17;;
179;SDS011;78;48.788;9.010;2024-02-16T05:19:27;20.93;;;5.40;;
179;SDS011;78;48.788;9.010;2024-02-16T05:21:53;18.17;;;4.97;;
179;SDS011;78;48.788;9.010;2024-02-16T05:24:20;17.43;;;4.53;;
179;SDS011;78;48.788;9.010;2024-02-16T05:26:47;19.50;;;5.33;;
179;SDS011;78;48.788;9.010;2024-02-16T05:29:13;17.60;;;4.70;;
179;SDS011;78;48.788;9.010;2024-02-16T05:31:40;18.50;;;5.10;;
179;SDS011;78;48.788;9.010;2024-02-16T05:34:06;19.57;;;5.20;;
179;SDS011;78;48.788;9.010;2024-02-16T05:36:32;17.90;;;4.50;;
179;SDS011;78;48.788;9.010;2024-02-16T05:39:01;17.00;;;4.50;;
179;SDS011;78;48.788;9.010;2024-02-16T05:41:35;18.20;;;4.50;;
179;SDS011;78;48.788;9.010;2024-02-16T05:44:03;18.33;;;4.83;;
179;SDS011;78;48.788;9.010;2024-02-16T05:46:29;21.53;;;5.27;;
179;SDS011;78;48.788;9.010;2024-02-16T05:48:55;18.63;;;5.30;;
179;SDS011;78;48.788;9.010;2024-02-16T05:51:22;18.30;;;4.97;;
179;SDS011;78;48.788;9.010;2024-02-16T05:53:48;19.77;;;5.43;;
179;SDS011;78;48.788;9.010;2024-02-16T05:56:14;18.10;;;4.90;;
179;SDS011;78;48.788;9.010;2024-02-16T05:58:40;17.80;;;5.03;;
179;SDS011;78;48.788;9.010;2024-02-16T06:01:06;20.40;;;4.80;;
179;SDS011;78;48.788;9.010;2024-02-16T06:03:35;19.80;;;4.80;;
179;SDS011;78;48.788;9.010;2024-02-16T06:06:01;18.70;;;4.73;;
179;SDS011;78;48.788;9.010;2024-02-16T06:08:27;20.97;;;5.10;;
179;SDS011;78;48.788;9.010;2024-02-16T06:10:53;19.27;;;5.50;;
179;SDS011;78;48.788;9.010;2024-02-16T06:13:20;23.93;;;5.90;;
179;SDS011;78;48.788;9.010;2024-02-16T06:15:47;25.73;;;6.37;;
179;SDS011;78;48.788;9.010;2024-02-16T06:18:13;32.60;;;11.50;;
179;SDS011;78;48.788;9.010;2024-02-16T06:20:39;32.30;;;11.63;;
179;SDS011;78;48.788;9.010;2024-02-16T06:23:06;32.40;;;11.87;;
179;SDS011;78;48.788;9.010;2024-02-16T06:25:34;32.20;;;10.60;;
179;SDS011;78;48.788;9.010;2024-02-16T06:28:00;27.40;;;9.73;;
179;SDS011;78;48.788;9.010;2024-02-16T06:30:26;26.60;;;9.60;;
179;SDS011;78;48.788;9.010;2024-02-16T06:32:52;24.90;;;8.77;;
179;SDS011;78;48.788;9.010;2024-02-16T06:35:20;26.63;;;8.50;;
179;SDS011;78;48.788;9.010;2024-02-16T06:37:46;25.10;;;8.50;;
179;SDS011;78;48.788;9.010;2024-02-16T06:40:12;24.10;;;7.60;;
179;SDS011;78;48.788;9.010;2024-02-16T06:42:39;25.70;;;8.00;;
179;SDS011;78;48.788;9.010;2024-02-16T06:45:05;24.33;;;7.90;;
179;SDS011;78;48.788;9.010;2024-02-16T06:47:31;23.97;;;7.97;;
179;SDS011;78;48.788;9.010;2024-02-16T06:49:58;23.73;;;7.87;;
179;SDS011;78;48.788;9.010;2024-02-16T06:52:24;25.57;;;8.03;;
179;SDS011;78;48.788;9.010;2024-02-16T06:54:50;25.67;;;7.93;;
179;SDS011;78;48.788;9.010;2024-02-16T06:57:16;25.70;;;7.80;;
179;SDS011;78;48.788;9.010;2024-02-16T06:59:42;25.77;;;7.40;;
179;SDS011;78;48.788;9.010;2024-02-16T07:02:08;27.00;;;8.47;;
179;SDS011;78;48.788;9.010;2024-02-16T07:04:36;26.60;;;8.23;;
179;SDS011;78;48.788;9.010;2024-02-16T07:07:02;28.60;;;7.30;;
179;SDS011;78;48.788;9.010;2024-02-16T07:09:29;24.20;;;7.57;;
179;SDS011;78;48.788;9.010;2024-02-16T07:11:55;25.47;;;8.10;;
179;SDS011;78;48.788;9.010;2024-02-16T07:14:21;29.00;;;7.40;;
179;SDS011;78;48.788;9.010;2024-02-16T07:16:47;24.20;;;7.20;;
179;SDS011;78;48.788;9.010;2024-02-16T07:19:13;24.10;;;6.97;;
179;SDS011;78;48.788;9.010;2024-02-16T07:21:40;22.80;;;6.60;;
179;SDS011;78;48.788;9.010;2024-02-16T07:24:06;31.80;;;7.10;;
179;SDS011;78;48.788;9.010;2024-02-16T07:26:34;23.13;;;7.20;;
179;SDS011;78;48.788;9.010;2024-02-16T07:29:02;25.80;;;7.07;;
179;SDS011;78;48.788;9.010;2024-02-16T07:31:34;28.87;;;7.40;;
179;SDS011;78;48.788;9.010;2024-02-16T07:34:01;29.00;;;7.73;;
179;SDS011;78;48.788;9.010;2024-02-16T07:36:28;27.50;;;9.00;;
179;SDS011;78;48.788;9.010;2024-02-16T07:38:55;26.10;;;8.50;;
179;SDS011;78;48.788;9.010;2024-02-16T07:41:21;30.20;;;8.57;;
179;SDS011;78;48.788;9.010;2024-02-16T07:43:47;30.77;;;8.77;;
179;SDS011;78;48.788;9.010;2024-02-16T07:46:13;28.37;;;9.53;;
179;SDS011;78;48.788;9.010;2024-02-16T07:48:39;27.13;;;8.30;;
179;SDS011;78;48.788;9.010;2024-02-16T07:51:05;30.70;;;9.37;;
179;SDS011;78;48.788;9.010;2024-02-16T07:53:33;27.57;;;9.97;;
179;SDS011;78;48.788;9.010;2024-02-16T07:55:59;29.83;;;9.80;;
179;SDS011;78;48.788;9.010;2024-02-16T07:58:26;26.37;;;9.40;;
179;SDS011;78;48.788;9.010;2024-02-16T08:00:51;27.27;;;9.87;;
179;SDS011;78;48.788;9.010;2024-02-16T08:03:20;28.50;;;10.40;;
179;SDS011;78;48.788;9.010;2024-02-16T08:05:46;28.57;;;9.77;;
179;SDS011;78;48.788;9.010;2024-02-16T08:08:12;25.13;;;9.03;;
179;SDS011;78;48.788;9.010;2024-02-16T08:10:38;24.10;;;7.80;;
179;SDS011;78;48.788;9.010;2024-02-16T08:13:04;27.07;;;8.00;;
179;SDS011;78;48.788;9.010;2024-02-16T08:15:30;25.33;;;8.30;;
179;SDS011;78;48.788;9.010;2024-02-16T08:17:56;25.87;;;7.70;;
179;SDS011;78;48.788;9.010;2024-02-16T08:20:22;24.40;;;7.63;;
179;SDS011;78;48.788;9.010;2024-02-16T08:22:48;21.70;;;6.33;;
179;SDS011;78;48.788;9.010;2024-02-16T08:25:14;26.40;;;6.37;;
179;SDS011;78;48.788;9.010;2024-02-16T08:27:41;23.47;;;7.10;;
179;SDS011;78;48.788;9.010;2024-02-16T08:30:07;22.80;;;6.43;;
179;SDS011;78;48.788;9.010;2024-02-16T08:32:36;19.40;;;5.57;;
179;SDS011;78;48.788;9.010;2024-02-16T08:35:02;18.83;;;5.17;;
179;SDS011;78;48.788;9.010;2024-02-16T08:37:28;21.90;;;5.17;;
179;SDS011;78;48.788;9.010;2024-02-16T08:39:54;18.87;;;4.93;;
179;SDS011;78;48.788;9.010;2024-02-16T08:42:20;27.17;;;7.27;;
179;SDS011;78;48.788;9.010;2024-02-16T08:44:47;26.20;;;6.10;;
179;SDS011;78;48.788;9.010;2024-02-16T08:47:15;26.70;;;8.50;;
179;SDS011;78;48.788;9.010;2024-02-16T08:49:41;21.33;;;5.60;;
179;SDS011;78;48.788;9.010;2024-02-16T08:52:08;20.33;;;4.87;;
179;SDS011;78;48.788;9.010;2024-02-16T08:54:34;22.50;;;5.10;;
179;SDS011;78;48.788;9.010;2024-02-16T08:57:01;18.20;;;4.40;;
179;SDS011;78;48.788;9.010;2024-02-16T08:59:27;19.30;;;4.23;;
179;SDS011;78;48.788;9.010;2024-02-16T09:01:55;17.50;;;4.30;;
179;SDS011;78;48.788;9.010;2024-02-16T09:04:21;19.57;;;4.83;;
179;SDS011;78;48.788;9.010;2024-02-16T09:06:47;19.43;;;4.87;;
179;SDS011;78;48.788;9.010;2024-02-16T09:09:14;19.20;;;4.30;;
179;SDS011;78;48.788;9.010;2024-02-16T09:11:40;18.70;;;4.10;;
179;SDS011;78;48.788;9.010;2024-02-16T09:14:06;20.07;;;4.33;;
179;SDS011;78;48.788;9.010;2024-02-16T09:16:32;17.63;;;4.00;;
179;SDS011;78;48.788;9.010;2024-02-16T09:18:58;16.17;;;3.80;;
179;SDS011;78;48.788;9.010;2024-02-16T09:21:24;20.80;;;4.50;;
179;SDS011;78;48.788;9.010;2024-02-16T09:23:53;17.40;;;3.70;;
179;SDS011;78;48.788;9.010;2024-02-16T09:26:23;17.87;;;3.87;;
179;SDS011;78;48.788;9.010;2024-02-16T09:28:51;17.23;;;3.40;;
179;SDS011;78;48.788;9.010;2024-02-16T09:31:19;17.57;;;4.23;;
179;SDS011;78;48.788;9.010;2024-02-16T09:33:46;21.10;;;3.87;;
179;SDS011;78;48.788;9.010;2024-02-16T09:36:12;16.80;;;4.10;;
179;SDS011;78;48.788;9.010;2024-02-16T09:38:38;18.87;;;4.30;;
179;SDS011;78;48.788;9.010;2024-02-16T09:41:04;16.70;;;3.80;;
179;SDS011;78;48.788;9.010;2024-02-16T09:43:30;17.80;;;3.83;;
179;SDS011;78;48.788;9.010;2024-02-16T09:45:56;18.20;;;3.93;;
179;SDS011;78;48.788;9.010;2024-02-16T09:48:23;21.60;;;3.93;;
179;SDS011;78;48.788;9.010;2024-02-16T09:50:50;18.83;;;3.60;;
179;SDS011;78;48.788;9.010;2024-02-16T09:53:16;17.33;;;3.60;;
179;SDS011;78;48.788;9.010;2024-02-16T09:55:43;16.63;;;3.77;;
179;SDS011;78;48.788;9.010;2024-02-16T09:58:09;19.30;;;3.83;;
179;SDS011;78;48.788;9.010;2024-02-16T10:00:41;16.23;;;3.70;;
179;SDS011;78;48.788;9.010;2024-02-16T10:03:07;18.73;;;4.07;;
179;SDS011;78;48.788;9.010;2024-02-16T10:05:35;18.30;;;3.80;;
179;SDS011;78;48.788;9.010;2024-02-16T10:08:10;17.37;;;4.10;;
179;SDS011;78;48.788;9.010;2024-02-16T10:10:36;22.60;;;4.17;;
179;SDS011;78;48.788;9.010;2024-02-16T10:13:03;17.13;;;3.80;;
179;SDS011;78;48.788;9.010;2024-02-16T10:15:29;16.30;;;3.77;;
179;SDS011;78;48.788;9.010;2024-02-16T10:20:24;18.13;;;3.57;;
179;SDS011;78;48.788;9.010;2024-02-16T10:22:50;17.73;;;3.57;;
179;SDS011;78;48.788;9.010;2024-02-16T10:25:15;17.83;;;3.50;;
179;SDS011;78;48.788;9.010;2024-02-16T10:27:41;16.10;;;3.40;;
179;SDS011;78;48.788;9.010;2024-02-16T10:30:07;18.50;;;3.80;;
179;SDS011;78;48.788;9.010;2024-02-16T10:32:37;19.50;;;3.60;;
179;SDS011;78;48.788;9.010;2024-02-16T10:35:04;18.07;;;3.90;;
179;SDS011;78;48.788;9.010;2024-02-16T10:37:32;17.40;;;3.50;;
179;SDS011;78;48.788;9.010;2024-02-16T10:39:58;16.97;;;4.00;;
179;SDS011;78;48.788;9.010;2024-02-16T10:42:26;17.90;;;4.00;;
179;SDS011;78;48.788;9.010;2024-02-16T10:44:56;19.83;;;3.70;;
179;SDS011;78;48.788;9.010;2024-02-16T10:47:22;18.20;;;3.80;;
179;SDS011;78;48.788;9.010;2024-02-16T10:49:48;18.53;;;3.50;;
179;SDS011;78;48.788;9.010;2024-02-16T10:52:14;15.83;;;3.23;;
179;SDS011;78;48.788;9.010;2024-02-16T10:54:41;20.80;;;4.03;;
179;SDS011;78;48.788;9.010;2024-02-16T10:57:08;17.40;;;3.50;;
179;SDS011;78;48.788;9.010;2024-02-16T10:59:41;19.40;;;3.63;;
179;SDS011;78;48.788;9.010;2024-02-16T11:02:11;16.50;;;3.70;;
179;SDS011;78;48.788;9.010;2024-02-16T11:04:37;15.57;;;3.37;;
179;SDS011;78;48.788;9.010;2024-02-16T11:07:10;16.67;;;3.60;;
179;SDS011;78;48.788;9.010;2024-02-16T11:09:38;16.03;;;3.40;;
179;SDS011;78;48.788;9.010;2024-02-16T11:12:05;18.60;;;3.67;;
179;SDS011;78;48.788;9.010;2024-02-16T11:14:34;16.47;;;3.47;;
179;SDS011;78;48.788;9.010;2024-02-16T11:17:01;17.03;;;3.53;;
179;SDS011;78;48.788;9.010;2024-02-16T11:19:29;18.90;;;3.50;;
179;SDS011;78;48.788;9.010;2024-02-16T11:21:56;17.10;;;3.70;;
179;SDS011;78;48.788;9.010;2024-02-16T11:24:27;20.30;;;3.87;;
179;SDS011;78;48.788;9.010;2024-02-16T11:26:55;21.13;;;4.00;;
179;SDS011;78;48.788;9.010;2024-02-16T11:29:21;18.60;;;3.40;;
179;SDS011;78;48.788;9.010;2024-02-16T11:31:47;18.97;;;3.53;;
179;SDS011;78;48.788;9.010;2024-02-16T11:34:27;18.73;;;3.77;;
179;SDS011;78;48.788;9.010;2024-02-16T11:36:54;25.17;;;4.43;;
179;SDS011;78;48.788;9.010;2024-02-16T11:39:20;17.73;;;3.40;;
179;SDS011;78;48.788;9.010;2024-02-16T11:41:46;16.73;;;3.60;;
179;SDS011;78;48.788;9.010;2024-02-16T11:44:13;16.77;;;3.57;;
179;SDS011;78;48.788;9.010;2024-02-16T11:46:41;16.17;;;3.70;;
179;SDS011;78;48.788;9.010;2024-02-16T11:49:07;16.10;;;3.57;;
179;SDS011;78;48.788;9.010;2024-02-16T11:51:34;18.60;;;3.80;;
179;SDS011;78;48.788;9.010;2024-02-16T11:54:00;17.27;;;3.47;;
179;SDS011;78;48.788;9.010;2024-02-16T11:56:26;20.20;;;4.00;;
179;SDS011;78;48.788;9.010;2024-02-16T11:58:52;18.67;;;3.87;;
179;SDS011;78;48.788;9.010;2024-02-16T12:01:19;17.73;;;4.13;;
179;SDS011;78;48.788;9.010;2024-02-16T12:03:46;19.43;;;3.97;;
179;SDS011;78;48.788;9.010;2024-02-16T12:06:19;19.63;;;3.50;;
179;SDS011;78;48.788;9.010;2024-02-16T12:08:49;15.33;;;3.50;;
179;SDS011;78;48.788;9.010;2024-02-16T12:11:15;19.17;;;3.47;;
179;SDS011;78;48.788;9.010;2024-02-16T12:13:41;20.17;;;4.20;;
179;SDS011;78;48.788;9.010;2024-02-16T12:16:07;20.63;;;4.33;;
179;SDS011;78;48.788;9.010;2024-02-16T12:18:33;16.80;;;3.97;;
179;SDS011;78;48.788;9.010;2024-02-16T12:21:00;18.47;;;3.47;;
179;SDS011;78;48.788;9.010;2024-02-16T12:23:26;19.40;;;4.07;;
179;SDS011;78;48.788;9.010;2024-02-16T12:25:52;15.57;;;3.40;;
179;SDS011;78;48.788;9.010;2024-02-16T12:28:18;16.40;;;3.40;;
179;SDS011;78;48.788;9.010;2024-02-16T12:30:45;18.10;;;3.73;;
179;SDS011;78;48.788;9.010;2024-02-16T12:33:11;17.47;;;3.40;;
179;SDS011;78;48.788;9.010;2024-02-16T12:35:37;24.50;;;3.77;;
179;SDS011;78;48.788;9.010;2024-02-16T12:38:03;19.43;;;3.57;;
179;SDS011;78;48.788;9.010;2024-02-16T12:40:30;20.93;;;3.57;;
179;SDS011;78;48.788;9.010;2024-02-16T12:42:56;17.70;;;4.00;;
179;SDS011;78;48.788;9.010;2024-02-16T12:45:22;19.83;;;3.70;;
179;SDS011;78;48.788;9.010;2024-02-16T12:47:48;17.60;;;3.80;;
179;SDS011;78;48.788;9.010;2024-02-16T12:50:15;17.10;;;3.30;;
179;SDS011;78;48.788;9.010;2024-02-16T12:52:42;18.97;;;3.60;;
179;SDS011;78;48.788;9.010;2024-02-16T12:55:08;18.53;;;3.57;;
179;SDS011;78;48.788;9.010;2024-02-16T12:57:35;18.03;;;4.00;;
179;SDS011;78;48.788;9.010;2024-02-16T13:00:01;17.20;;;3.40;;
179;SDS011;78;48.788;9.010;2024-02-16T13:02:27;18.20;;;3.83;;
179;SDS011;78;48.788;9.010;2024-02-16T13:04:54;18.00;;;3.53;;
179;SDS011;78;48.788;9.010;2024-02-16T13:07:20;18.60;;;3.70;;
179;SDS011;78;48.788;9.010;2024-02-16T13:09:46;26.50;;;3.70;;
179;SDS011;78;48.788;9.010;2024-02-16T13:12:12;16.53;;;3.70;;
179;SDS011;78;48.788;9.010;2024-02-16T13:14:38;26.23;;;6.33;;
179;SDS011;78;48.788;9.010;2024-02-16T13:17:04;27.70;;;4.97;;
179;SDS011;78;48.788;9.010;2024-02-16T13:19:30;19.23;;;4.10;;
179;SDS011;78;48.788;9.010;2024-02-16T13:21:56;23.53;;;4.77;;
179;SDS011;78;48.788;9.010;2024-02-16T13:24:22;35.20;;;14.00;;
179;SDS011;78;48.788;9.010;2024-02-16T13:26:48;32.90;;;8.33;;
179;SDS011;78;48.788;9.010;2024-02-16T13:29:14;20.77;;;4.23;;
179;SDS011;78;48.788;9.010;2024-02-16T13:31:40;22.73;;;3.83;;
179;SDS011;78;48.788;9.010;2024-02-16T13:34:07;24.20;;;3.97;;
179;SDS011;78;48.788;9.010;2024-02-16T13:36:33;20.77;;;3.73;;
179;SDS011;78;48.788;9.010;2024-02-16T13:38:59;19.90;;;3.90;;
179;SDS011;78;48.788;9.010;2024-02-16T13:41:25;23.07;;;4.40;;
179;SDS011;78;48.788;9.010;2024-02-16T13:43:51;21.40;;;3.83;;
179;SDS011;78;48.788;9.010;2024-02-16T13:46:18;25.30;;;4.47;;
179;SDS011;78;48.788;9.010;2024-02-16T13:48:44;19.10;;;3.83;;
179;SDS011;78;48.788;9.010;2024-02-16T13:51:10;25.20;;;4.00;;
179;SDS011;78;48.788;9.010;2024-02-16T13:53:36;19.37;;;3.63;;
179;SDS011;78;48.788;9.010;2024-02-16T13:56:02;25.60;;;3.80;;
179;SDS011;78;48.788;9.010;2024-02-16T13:58:29;19.63;;;3.40;;
179;SDS011;78;48.788;9.010;2024-02-16T14:00:55;17.30;;;3.50;;
179;SDS011;78;48.788;9.010;2024-02-16T14:03:21;21.00;;;3.80;;
179;SDS011;78;48.788;9.010;2024-02-16T14:05:47;26.97;;;3.50;;
179;SDS011;78;48.788;9.010;2024-02-16T14:08:14;37.27;;;4.13;;
179;SDS011;78;48.788;9.010;2024-02-16T14:10:41;25.50;;;3.60;;
179;SDS011;78;48.788;9.010;2024-02-16T14:13:07;21.77;;;3.47;;
179;SDS011;78;48.788;9.010;2024-02-16T14:15:35;27.37;;;3.50;;
179;SDS011;78;48.788;9.010;2024-02-16T14:18:01;23.73;;;3.60;;
179;SDS011;78;48.788;9.010;2024-02-16T14:20:28;20.90;;;3.43;;
179;SDS011;78;48.788;9.010;2024-02-16T14:22:54;21.27;;;3.30;;
179;SDS011;78;48.788;9.010;2024-02-16T14:25:20;19.50;;;3.47;;
179;SDS011;78;48.788;9.010;2024-02-16T14:27:47;20.23;;;3.43;;
179;SDS011;78;48.788;9.010;2024-02-16T14:30:13;29.40;;;3.30;;
179;SDS011;78;48.788;9.010;2024-02-16T14:32:39;21.60;;;3.40;;
179;SDS011;78;48.788;9.010;2024-02-16T14:35:06;22.73;;;3.53;;
179;SDS011;78;48.788;9.010;2024-02-16T14:37:32;24.80;;;3.63;;
179;SDS011;78;48.788;9.010;2024-02-16T14:39:58;17.97;;;3.20;;
179;SDS011;78;48.788;9.010;2024-02-16T14:42:25;21.10;;;3.20;;
179;SDS011;78;48.788;9.010;2024-02-16T14:44:51;18.40;;;2.90;;
179;SDS011;78;48.788;9.010;2024-02-16T14:47:17;21.83;;;3.10;;
179;SDS011;78;48.788;9.010;2024-02-16T14:49:43;21.37;;;3.30;;
179;SDS011;78;48.788;9.010;2024-02-16T14:52:09;17.90;;;3.07;;
179;SDS011;78;48.788;9.010;2024-02-16T14:54:36;19.90;;;3.20;;
179;SDS011;78;48.788;9.010;2024-02-16T14:57:02;18.07;;;2.93;;
179;SDS011;78;48.788;9.010;2024-02-16T14:59:28;19.70;;;3.50;;
179;SDS011;78;48.788;9.010;2024-02-16T15:01:55;22.27;;;3.23;;
179;SDS011;78;48.788;9.010;2024-02-16T15:04:21;19.33;;;2.73;;
179;SDS011;78;48.788;9.010;2024-02-16T15:06:47;21.43;;;3.20;;
179;SDS011;78;48.788;9.010;2024-02-16T15:09:13;18.53;;;2.97;;
179;SDS011;78;48.788;9.010;2024-02-16T15:11:39;33.00;;;9.30;;
179;SDS011;78;48.788;9.010;2024-02-16T15:14:05;18.90;;;2.97;;
179;SDS011;78;48.788;9.010;2024-02-16T15:16:31;21.50;;;3.93;;
179;SDS011;78;48.788;9.010;2024-02-16T15:18:57;19.77;;;3.63;;
179;SDS011;78;48.788;9.010;2024-02-16T15:21:26;20.30;;;3.60;;
179;SDS011;78;48.788;9.010;2024-02-16T15:23:52;18.70;;;3.20;;
179;SDS011;78;48.788;9.010;2024-02-16T15:26:18;21.63;;;4.10;;
179;SDS011;78;48.788;9.010;2024-02-16T15:28:44;17.97;;;2.97;;
179;SDS011;78;48.788;9.010;2024-02-16T15:31:10;16.60;;;3.10;;
179;SDS011;78;48.788;9.010;2024-02-16T15:33:36;31.50;;;10.90;;
179;SDS011;78;48.788;9.010;2024-02-16T15:36:02;33.13;;;12.17;;
179;SDS011;78;48.788;9.010;2024-02-16T15:38:28;26.60;;;9.70;;
179;SDS011;78;48.788;9.010;2024-02-16T15:40:54;53.93;;;23.70;;
179;SDS011;78;48.788;9.010;2024-02-16T15:43:20;34.17;;;11.70;;